Time;durP1;ratioP1;P1;durP2;ratioP2;P2;SDS_P1;SDS_P2;PMS_P1;PMS_P2;Temp;Humidity;BMP_temperature;BMP_pressure;BME280_temperature;BME280_humidity;BME280_pressure;Samples;Min_cycle;Max_cycle;Signal;HPM_P1;HPM_P2
2023/02/13 00:01:23;;;;;;;5.53;5.03;;;;;;;19.56;42.47;99278.75;4997862;28;20199;-90
2023/02/13 00:03:52;;;;;;;6.20;5.60;;;;;;;19.32;42.79;99235.47;5014464;28;20198;-92
2023/02/13 00:06:22;;;;;;;7.07;6.37;;;;;;;18.47;42.62;99086.28;4988357;28;20216;-91
2023/02/13 00:08:49;;;;;;;5.90;5.40;;;;;;;20.02;42.63;99357.44;4985234;28;20223;-90
2023/02/13 00:11:15;;;;;;;5.57;5.07;;;;;;;18.90;42.09;99162.19;4988728;28;20309;-92
2023/02/13 00:13:42;;;;;;;5.80;5.30;;;;;;;20.50;42.47;99438.88;4994795;28;20196;-92
2023/02/13 00:16:09;;;;;;;6.13;5.53;;;;;;;19.50;42.53;99265.59;4970448;28;20236;-91
2023/02/13 00:18:36;;;;;;;5.83;5.33;;;;;;;19.20;42.47;99201.50;4987619;28;20184;-90
2023/02/13 00:21:04;;;;;;;5.83;5.30;;;;;;;20.50;42.48;99444.00;4981721;28;20192;-92
2023/02/13 00:23:36;;;;;;;5.87;5.27;;;;;;;17.66;42.36;98935.75;4995143;28;20310;-92
2023/02/13 00:26:11;;;;;;;5.37;4.87;;;;;;;18.14;42.76;99045.84;4974106;28;20215;-92
2023/02/13 00:28:54;;;;;;;5.97;5.47;;;;;;;17.37;42.48;98882.97;4970877;28;20188;-90
2023/02/13 00:31:26;;;;;;;5.80;5.30;;;;;;;18.74;42.42;99144.09;4974675;28;20210;-91
2023/02/13 00:34:06;;;;;;;5.07;4.63;;;;;;;18.27;42.59;99049.31;4962108;28;20188;-92
2023/02/13 00:36:36;;;;;;;5.60;5.10;;;;;;;19.59;42.74;99284.03;4987126;28;20208;-89
2023/02/13 00:39:13;;;;;;;;;;;;;;;;;;;;;
2023/02/13 00:41:54;;;;;;;5.13;4.70;;;;;;;18.17;42.72;99035.88;4981631;28;20195;-90
2023/02/13 00:44:21;;;;;;;5.60;5.10;;;;;;;19.64;42.54;99282.69;4973257;28;20212;-91
2023/02/13 00:46:47;;;;;;;5.67;5.17;;;;;;;19.54;42.39;99259.03;4953589;28;20217;-91
2023/02/13 00:49:26;;;;;;;5.60;5.10;;;;;;;18.89;42.37;99146.78;4984164;28;20204;-92
2023/02/13 00:51:52;;;;;;;5.40;4.90;;;;;;;18.68;42.36;99113.16;4974020;28;20418;-92
2023/02/13 00:54:35;;;;;;;5.23;4.83;;;;;;;18.03;42.78;98994.25;4984310;28;20247;-91
2023/02/13 00:57:04;;;;;;;5.50;5.00;;;;;;;19.83;42.52;99318.78;4974211;28;20210;-91
2023/02/13 00:59:40;;;;;;;4.83;4.43;;;;;;;20.29;42.56;99399.22;4967066;28;20214;-92
2023/02/13 01:02:44;;;;;;;5.13;4.73;;;;;;;19.32;42.57;99240.56;4977863;28;20188;-90
2023/02/13 01:05:13;;;;;;;5.73;5.13;;;;;;;20.03;42.37;99348.13;4972603;28;20356;-92
2023/02/13 01:07:39;;;;;;;5.30;4.80;;;;;;;19.24;42.03;99206.91;4991327;28;20235;-90
2023/02/13 01:10:08;;;;;;;5.20;4.70;;;;;;;18.78;42.27;99130.81;4975031;28;20209;-92
2023/02/13 01:12:37;;;;;;;5.50;5.00;;;;;;;18.74;42.42;99136.47;4994789;28;20186;-92
2023/02/13 01:15:04;;;;;;;5.27;4.87;;;;;;;19.98;42.40;99340.97;4976772;28;20200;-92
2023/02/13 01:17:31;;;;;;;5.10;4.70;;;;;;;19.11;42.55;99194.16;4993338;28;20211;-92
2023/02/13 01:19:57;;;;;;;5.50;5.00;;;;;;;18.97;42.59;99164.34;4991222;28;20176;-92
2023/02/13 01:22:25;;;;;;;5.70;5.20;;;;;;;19.32;42.40;99228.72;4996412;28;20193;-92
2023/02/13 01:24:52;;;;;;;5.50;5.00;;;;;;;20.14;42.24;99372.72;4985887;28;20208;-91
2023/02/13 01:27:28;;;;;;;5.37;4.97;;;;;;;19.15;42.33;99225.78;4985022;28;20287;-92
2023/02/13 01:30:04;;;;;;;5.53;5.03;;;;;;;19.82;42.50;99334.00;4959803;28;20228;-92
2023/02/13 01:32:32;;;;;;;5.67;5.17;;;;;;;17.37;42.39;98900.75;4979406;28;20213;-93
2023/02/13 01:34:59;;;;;;;5.13;4.63;;;;;;;18.39;42.43;99068.75;4990167;28;20195;-92
2023/02/13 01:37:28;;;;;;;5.07;4.67;;;;;;;18.72;42.48;99121.88;4983322;28;20212;-92
2023/02/13 01:39:59;;;;;;;5.27;4.83;;;;;;;18.70;42.48;99114.16;4978600;28;20187;-92
2023/02/13 01:42:28;;;;;;;5.40;4.90;;;;;;;19.49;42.45;99266.41;4987251;28;20187;-92
2023/02/13 01:45:24;;;;;;;5.03;4.63;;;;;;;18.27;42.51;99073.88;4954318;28;20199;-93
2023/02/13 01:48:09;;;;;;;5.30;4.80;;;;;;;19.41;42.36;99262.44;4985687;28;20206;-91
2023/02/13 01:51:14;;;;;;;4.90;4.50;;;;;;;19.12;42.56;99210.31;4979442;28;20211;-92
2023/02/13 01:54:16;;;;;;;4.73;4.33;;;;;;;20.48;42.40;99431.88;4941064;28;20187;-91
2023/02/13 01:56:50;;;;;;;4.80;4.40;;;;;;;20.42;42.57;99427.28;4971799;28;20246;-91
2023/02/13 01:59:21;;;;;;;4.97;4.47;;;;;;;19.87;42.54;99351.34;4956339;28;20215;-92
2023/02/13 02:01:57;;;;;;;5.10;4.70;;;;;;;18.29;42.31;99066.34;4990927;28;20259;-91
2023/02/13 02:04:27;;;;;;;5.17;4.77;;;;;;;20.02;42.38;99367.66;4989098;28;20211;-90
2023/02/13 02:06:57;;;;;;;5.10;4.70;;;;;;;19.41;42.15;99256.47;4973942;28;20227;-92
2023/02/13 02:09:28;;;;;;;4.50;4.20;;;;;;;19.68;42.55;99302.50;4993242;28;20203;-91
2023/02/13 02:12:05;;;;;;;4.63;4.23;;;;;;;18.67;42.38;99126.66;4967453;28;20179;-91
2023/02/13 02:14:37;;;;;;;4.53;4.17;;;;;;;18.28;42.36;99027.28;4973128;28;20206;-92
2023/02/13 02:17:15;;;;;;;4.63;4.30;;;;;;;18.86;42.36;99137.25;4967747;28;20204;-92
2023/02/13 02:19:54;;;;;;;4.80;4.40;;;;;;;20.26;42.07;99370.94;4987759;28;20179;-91
2023/02/13 02:23:06;;;;;;;4.60;4.20;;;;;;;20.53;42.02;99412.63;4983968;28;20199;-92
2023/02/13 02:26:12;;;;;;;4.70;4.30;;;;;;;20.52;42.17;99416.84;4985959;28;20242;-92
2023/02/13 02:29:03;;;;;;;4.90;4.50;;;;;;;20.53;42.29;99408.44;4966827;28;20266;-91
2023/02/13 02:31:54;;;;;;;4.77;4.37;;;;;;;20.52;42.12;99408.34;4983520;28;20201;-92
2023/02/13 02:34:59;;;;;;;4.77;4.37;;;;;;;20.51;42.19;99404.88;4997515;28;20208;-91
2023/02/13 02:37:47;;;;;;;4.53;4.17;;;;;;;20.52;42.22;99409.19;4985572;28;20238;-92
2023/02/13 02:40:24;;;;;;;5.13;4.63;;;;;;;20.50;42.33;99413.34;4985326;28;20185;-92
2023/02/13 02:43:15;;;;;;;5.07;4.67;;;;;;;20.50;42.30;99412.44;4987968;28;20740;-92
2023/02/13 02:46:24;;;;;;;5.10;4.70;;;;;;;20.25;42.63;99371.69;4991216;28;20215;-92
2023/02/13 02:52:19;;;;;;;4.40;4.00;;;;;;;18.07;42.81;98987.72;4977533;28;20184;-91
2023/02/13 02:55:16;;;;;;;4.70;4.30;;;;;;;19.14;42.80;99176.50;4991295;28;20184;-91
2023/02/13 03:06:42;;;;;;;4.30;3.90;;;;;;;19.65;42.62;99270.78;4990897;28;20283;-92
2023/02/13 03:15:15;;;;;;;4.17;3.80;;;;;;;19.22;42.82;99190.63;4978013;28;20189;-93
2023/02/13 03:23:34;;;;;;;4.67;4.27;;;;;;;17.87;42.86;98977.88;4986534;28;20210;-92
2023/02/13 03:26:44;;;;;;;4.70;4.30;;;;;;;20.43;42.78;99416.28;4993746;28;20216;-93
2023/02/13 03:32:26;;;;;;;4.77;4.37;;;;;;;18.68;42.61;99130.13;4967570;28;20212;-90
2023/02/13 03:38:01;;;;;;;4.50;4.10;;;;;;;19.96;42.92;99335.78;4983564;28;20284;-91
2023/02/13 03:44:24;;;;;;;4.60;4.20;;;;;;;20.44;42.87;99420.63;4998259;28;20207;-91
2023/02/13 03:47:15;;;;;;;4.60;4.20;;;;;;;18.20;42.79;99042.06;5005804;28;20219;-92
2023/02/13 03:50:04;;;;;;;4.40;4.00;;;;;;;18.79;42.66;99159.69;4970887;28;20198;-92
2023/02/13 03:53:04;;;;;;;3.97;3.63;;;;;;;19.86;43.03;99330.84;4922872;28;20195;-91
2023/02/13 04:01:32;;;;;;;4.30;3.90;;;;;;;19.30;42.83;99243.00;4976200;28;20192;-92
2023/02/13 04:04:09;;;;;;;4.27;3.93;;;;;;;20.44;42.80;99425.72;4962197;28;20190;-92
2023/02/13 04:06:55;;;;;;;4.00;3.70;;;;;;;18.76;42.68;99165.47;4984869;28;20259;-92
2023/02/13 04:09:28;;;;;;;4.27;3.93;;;;;;;19.75;43.03;99314.84;4977855;28;20184;-91
2023/02/13 04:12:19;;;;;;;4.60;4.20;;;;;;;18.48;42.85;99110.97;4971847;28;20196;-92
2023/02/13 04:14:56;;;;;;;3.90;3.60;;;;;;;20.10;42.38;99393.66;4996243;28;20240;-90
2023/02/13 04:17:26;;;;;;;4.30;4.00;;;;;;;20.34;42.85;99417.38;4975568;28;20208;-92
2023/02/13 04:19:55;;;;;;;3.93;3.63;;;;;;;18.91;42.74;99170.69;4993301;28;20196;-91
2023/02/13 04:22:29;;;;;;;3.87;3.57;;;;;;;18.79;42.99;99152.06;4980662;28;20188;-92
2023/02/13 04:25:09;;;;;;;3.80;3.50;;;;;;;17.40;42.71;98955.97;4963616;28;20187;-93
2023/02/13 04:27:48;;;;;;;3.77;3.47;;;;;;;18.83;42.86;99146.41;4995325;28;20219;-91
2023/02/13 04:30:23;;;;;;;3.87;3.57;;;;;;;17.81;42.72;98995.28;4993329;28;20208;-92
2023/02/13 04:32:59;;;;;;;4.10;3.80;;;;;;;17.61;42.71;98945.63;4982506;28;20184;-92
2023/02/13 04:35:37;;;;;;;3.57;3.30;;;;;;;19.21;42.53;99237.28;4956618;28;20203;-92
2023/02/13 04:41:01;;;;;;;4.27;3.90;;;;;;;18.21;42.75;99043.81;4968264;28;20200;-92
2023/02/13 04:43:51;;;;;;;4.20;3.90;;;;;;;17.56;42.78;98929.19;4989571;28;20256;-91
2023/02/13 04:46:20;;;;;;;3.93;3.63;;;;;;;18.23;42.57;99064.25;4987966;28;20232;-91
2023/02/13 04:49:09;;;;;;;4.10;3.80;;;;;;;17.56;42.71;98943.56;4974868;28;20215;-92
2023/02/13 04:51:39;;;;;;;4.33;3.93;;;;;;;17.85;42.89;98985.41;4979395;28;20184;-91
2023/02/13 04:54:23;;;;;;;4.43;4.03;;;;;;;18.85;42.63;99152.44;4967253;28;20215;-91
2023/02/13 04:56:56;;;;;;;3.60;3.30;;;;;;;18.03;42.74;99034.97;4978142;28;20224;-90
2023/02/13 04:59:31;;;;;;;3.77;3.47;;;;;;;18.68;42.61;99120.78;4979484;28;20203;-92
2023/02/13 05:02:11;;;;;;;3.90;3.60;;;;;;;18.53;42.63;99101.97;4958475;28;20231;-91
2023/02/13 05:04:40;;;;;;;3.77;3.47;;;;;;;19.95;41.93;99346.75;4977595;28;20190;-91
2023/02/13 05:07:10;;;;;;;3.83;3.53;;;;;;;18.65;42.56;99140.97;4991876;28;20212;-92
2023/02/13 05:09:39;;;;;;;4.03;3.73;;;;;;;18.14;42.58;99040.75;4978697;28;20184;-91
2023/02/13 05:12:08;;;;;;;4.20;3.90;;;;;;;18.63;42.35;99109.44;4980689;28;20196;-93
2023/02/13 05:14:38;;;;;;;4.20;3.90;;;;;;;17.71;42.21;98973.41;4981408;28;20296;-91
2023/02/13 05:17:07;;;;;;;4.37;3.97;;;;;;;19.01;42.22;99178.16;4966437;28;20200;-92
2023/02/13 05:19:34;;;;;;;4.30;4.00;;;;;;;17.98;42.23;99010.91;4965811;28;20197;-91
2023/02/13 05:25:05;;;;;;;4.53;4.13;;;;;;;18.81;42.47;99158.13;4941585;28;20198;-92
2023/02/13 05:32:55;;;;;;;4.23;3.90;;;;;;;18.74;42.19;99151.75;5066388;23;20312;-95
2023/02/13 05:35:29;;;;;;;4.50;4.10;;;;;;;18.73;42.39;99131.28;4978287;28;20205;-94
2023/02/13 05:37:59;;;;;;;3.70;3.40;;;;;;;18.82;42.05;99176.06;4980963;28;20231;-93
2023/02/13 05:40:30;;;;;;;4.03;3.73;;;;;;;18.20;42.47;99038.63;4954547;28;20228;-95
2023/02/13 05:43:02;;;;;;;3.90;3.60;;;;;;;18.78;42.21;99163.03;4949075;28;20197;-94
2023/02/13 05:45:36;;;;;;;3.80;3.50;;;;;;;18.38;42.48;99084.81;4956544;28;20211;-92
2023/02/13 05:48:03;;;;;;;4.03;3.73;;;;;;;19.02;42.41;99221.59;4949927;28;20207;-94
2023/02/13 05:50:40;;;;;;;4.00;3.70;;;;;;;18.29;42.19;99092.66;4967809;28;20183;-94
2023/02/13 05:53:11;;;;;;;3.97;3.67;;;;;;;17.97;42.36;99020.97;4968837;28;20187;-94
2023/02/13 05:55:42;;;;;;;3.97;3.67;;;;;;;18.11;42.16;99054.16;4950942;28;20212;-95
2023/02/13 05:58:10;;;;;;;4.40;4.00;;;;;;;19.52;42.43;99281.91;4972197;28;20207;-92
2023/02/13 06:00:37;;;;;;;3.50;3.20;;;;;;;19.92;42.51;99364.41;4993544;28;20183;-94
2023/02/13 06:03:04;;;;;;;3.60;3.30;;;;;;;19.20;41.92;99238.09;4966963;28;20188;-91
2023/02/13 06:05:30;;;;;;;4.17;3.77;;;;;;;19.09;42.42;99235.59;5001570;28;20200;-90
2023/02/13 06:07:57;;;;;;;6.73;6.13;;;;;;;19.16;42.23;99228.44;4999425;28;20211;-92
2023/02/13 06:10:23;;;;;;;8.37;7.57;;;;;;;20.02;40.58;99389.75;4985850;28;20235;-93
2023/02/13 06:12:50;;;;;;;8.10;7.40;;;;;;;19.51;39.50;99297.09;4990172;28;20203;-92
2023/02/13 06:15:17;;;;;;;10.33;9.33;;;;;;;20.06;38.28;99401.03;4981110;28;20267;-92
2023/02/13 06:17:43;;;;;;;10.33;9.33;;;;;;;19.84;37.35;99369.00;4981456;28;20236;-91
2023/02/13 06:20:10;;;;;;;8.87;8.07;;;;;;;19.54;37.38;99323.66;4985163;28;20187;-90
2023/02/13 06:22:36;;;;;;;9.17;8.37;;;;;;;20.18;37.68;99441.03;5003676;28;20247;-91
2023/02/13 06:25:03;;;;;;;9.27;8.43;;;;;;;20.25;38.51;99455.09;5007788;28;20207;-91
2023/02/13 06:27:30;;;;;;;8.20;7.50;;;;;;;19.52;38.61;99332.91;5007325;28;20246;-93
2023/02/13 06:29:57;;;;;;;8.20;7.40;;;;;;;18.21;39.08;99099.78;4986840;28;20188;-91
2023/02/13 06:32:23;;;;;;;7.50;6.80;;;;;;;19.30;39.05;99328.84;5003391;28;20197;-93
2023/02/13 06:34:50;;;;;;;9.27;8.47;;;;;;;19.31;39.43;99322.94;4948299;28;20195;-91
2023/02/13 06:37:16;;;;;;;10.63;9.63;;;;;;;19.41;36.96;99330.41;4974239;28;20207;-93
2023/02/13 06:39:44;;;;;;;12.40;10.43;;;;;;;18.50;36.20;99170.50;4978646;28;20243;-92
2023/02/13 06:42:10;;;;;;;9.77;8.87;;;;;;;19.31;36.78;99344.22;4999164;28;20204;-93
2023/02/13 06:44:37;;;;;;;12.30;9.53;;;;;;;19.42;37.77;99356.00;4982383;28;20194;-91
2023/02/13 06:47:04;;;;;;;9.77;8.87;;;;;;;18.79;37.23;99248.84;4992662;28;20215;-90
2023/02/13 06:49:31;;;;;;;9.20;8.30;;;;;;;19.55;38.30;99393.41;4991222;28;20195;-93
2023/02/13 06:51:58;;;;;;;8.83;7.40;;;;;;;17.74;38.80;99095.69;4974559;28;20179;-94
2023/02/13 06:57:14;;;;;;;8.20;7.50;;;;;;;19.79;39.14;99466.47;5669464;22;20226;-94
2023/02/13 06:59:41;;;;;;;8.43;7.40;;;;;;;18.86;39.17;99296.91;4987153;28;20261;-92
2023/02/13 07:02:09;;;;;;;7.47;6.77;;;;;;;19.48;39.32;99397.22;5000312;28;20210;-93
2023/02/13 07:04:36;;;;;;;8.50;7.70;;;;;;;20.20;39.22;99533.06;4985527;28;20258;-93
2023/02/13 08:33:26;;;;;;;9.20;8.33;;;;;;;19.43;39.25;99396.03;5250932;22;20253;-94
2023/02/13 08:35:53;;;;;;;10.97;9.87;;;;;;;18.89;37.36;99327.69;4981181;28;20195;-94
2023/02/13 08:38:20;;;;;;;11.80;9.43;;;;;;;19.29;37.01;99391.69;4943308;28;20185;-95
2023/02/13 08:46:10;;;;;;;14.73;8.40;;;;;;;18.26;38.39;99214.63;5479852;23;20243;-93
2023/02/13 08:48:37;;;;;;;8.87;7.87;;;;;;;19.67;38.73;99463.09;4979188;28;20192;-93
2023/02/13 08:51:08;;;;;;;8.30;7.40;;;;;;;18.99;39.16;99356.44;4979178;28;20204;-92
2023/02/13 08:53:35;;;;;;;8.30;6.77;;;;;;;18.83;39.14;99319.63;4979219;28;20718;-92
2023/02/13 08:56:01;;;;;;;8.47;7.10;;;;;;;18.77;38.61;99302.22;4978555;28;20184;-92
2023/02/13 08:58:28;;;;;;;7.87;6.87;;;;;;;19.33;38.66;99406.38;4979040;28;20242;-92
2023/02/13 09:00:55;;;;;;;7.63;6.87;;;;;;;19.48;38.91;99432.91;4987618;28;20180;-92
2023/02/13 09:03:21;;;;;;;6.87;6.17;;;;;;;19.68;39.22;99465.75;4979224;28;20238;-92
2023/02/13 09:05:48;;;;;;;7.70;6.23;;;;;;;20.04;39.33;99531.09;4989774;28;20195;-91
2023/02/13 09:08:15;;;;;;;7.30;5.90;;;;;;;18.79;39.69;99326.16;4978761;28;20229;-92
2023/02/13 09:10:44;;;;;;;5.77;5.27;;;;;;;19.38;39.57;99422.00;4978321;28;20251;-92
2023/02/13 09:13:10;;;;;;;6.33;5.67;;;;;;;19.69;39.68;99479.41;4987852;28;20236;-93
2023/02/13 09:15:39;;;;;;;4.83;4.40;;;;;;;19.25;39.78;99391.31;4960955;28;21192;-91
2023/02/13 09:18:06;;;;;;;5.13;4.73;;;;;;;19.57;39.37;99450.53;4960532;28;20279;-92
2023/02/13 09:20:33;;;;;;;5.10;4.70;;;;;;;20.19;40.44;99551.72;4941804;28;20191;-93
2023/02/13 09:23:01;;;;;;;4.90;4.50;;;;;;;18.84;39.62;99319.72;4977703;28;20210;-92
2023/02/13 09:25:28;;;;;;;6.80;4.73;;;;;;;19.32;39.79;99399.53;4992480;28;20187;-92
2023/02/13 09:27:54;;;;;;;4.57;4.17;;;;;;;19.13;39.93;99362.47;4982341;28;20242;-92
2023/02/13 09:30:24;;;;;;;5.80;4.33;;;;;;;19.77;39.89;99470.56;4982874;28;20201;-91
2023/02/13 09:32:51;;;;;;;4.87;4.43;;;;;;;19.05;39.86;99344.09;4978723;28;20207;-92
2023/02/13 09:35:18;;;;;;;4.90;4.50;;;;;;;19.33;39.96;99401.28;4975477;28;20195;-92
2023/02/13 09:37:45;;;;;;;4.20;3.80;;;;;;;19.79;39.85;99481.78;4944657;28;20204;-92
2023/02/13 09:40:19;;;;;;;5.07;4.57;;;;;;;18.83;40.26;99317.94;4976101;28;20204;-91
2023/02/13 09:42:46;;;;;;;4.50;4.10;;;;;;;18.88;40.48;99319.13;4974539;28;20186;-92
2023/02/13 09:45:13;;;;;;;4.43;4.00;;;;;;;19.29;40.15;99396.78;4959369;28;20208;-92
2023/02/13 09:47:40;;;;;;;4.53;4.13;;;;;;;18.76;40.22;99303.03;4960575;28;20258;-91
2023/02/13 09:50:11;;;;;;;4.00;3.70;;;;;;;20.26;40.23;99565.00;4975943;28;20199;-92
2023/02/13 09:52:38;;;;;;;4.07;3.67;;;;;;;19.30;40.39;99408.72;4971368;28;20184;-92
2023/02/13 09:55:15;;;;;;;3.70;3.40;;;;;;;20.27;40.31;99561.66;4977198;28;20180;-91
2023/02/13 09:57:46;;;;;;;3.70;3.40;;;;;;;18.90;40.20;99311.59;4981312;28;20467;-91
2023/02/13 10:00:21;;;;;;;3.93;3.47;;;;;;;19.00;40.18;99359.84;4962588;28;20690;-92
2023/02/13 10:03:00;;;;;;;4.00;3.70;;;;;;;20.29;40.25;99557.53;4962224;28;20199;-92
2023/02/13 10:06:18;;;;;;;3.63;3.33;;;;;;;20.30;40.29;99559.28;4987220;28;20204;-92
2023/02/13 10:17:35;;;;;;;3.43;3.13;;;;;;;20.29;40.72;99565.19;4953223;28;20220;-92
2023/02/13 10:55:16;;;;;;;2.87;2.67;;;;;;;20.25;40.94;99536.81;5165244;23;20214;-91
2023/02/13 10:58:07;;;;;;;2.93;2.73;;;;;;;20.26;40.92;99538.56;4993221;28;20254;-92
2023/02/13 11:32:18;;;;;;;3.00;2.70;;;;;;;19.10;40.91;99329.13;3588582;22;20494;-92
2023/02/13 11:34:45;;;;;;;2.87;2.67;;;;;;;20.12;40.89;99498.44;4980804;28;20198;-92
2023/02/13 11:37:11;;;;;;;3.13;2.93;;;;;;;20.29;41.53;99532.00;4980103;28;20238;-92
2023/02/13 11:39:40;;;;;;;3.20;2.90;;;;;;;18.83;41.16;99266.13;4993220;28;20207;-92
2023/02/13 11:42:18;;;;;;;3.00;2.80;;;;;;;19.22;40.91;99345.25;4961593;28;20184;-92
2023/02/13 11:44:49;;;;;;;3.30;3.00;;;;;;;19.37;41.00;99370.13;4961693;28;20184;-93
2023/02/13 11:47:16;;;;;;;3.00;2.80;;;;;;;19.11;41.53;99310.50;4963781;28;20212;-92
2023/02/13 11:49:46;;;;;;;3.43;2.90;;;;;;;18.89;41.14;99277.59;4945003;28;20193;-92
2023/02/13 11:52:22;;;;;;;2.97;2.77;;;;;;;18.44;41.17;99195.53;4962021;28;20352;-91
2023/02/13 11:55:00;;;;;;;2.70;2.50;;;;;;;18.92;41.13;99285.44;4978849;28;20195;-91
2023/02/13 11:57:33;;;;;;;3.23;3.03;;;;;;;19.66;41.16;99423.06;4979435;28;20207;-93
2023/02/13 12:00:19;;;;;;;2.70;2.50;;;;;;;18.97;41.27;99308.69;4975794;28;20211;-89
2023/02/13 12:36:44;;;;;;;2.90;2.70;;;;;;;20.30;41.31;99513.34;4771487;23;20245;-92
2023/02/13 12:39:20;;;;;;;3.00;2.80;;;;;;;20.29;41.26;99511.56;4973153;28;20188;-92
2023/02/13 12:42:32;;;;;;;3.10;2.87;;;;;;;20.29;41.21;99511.56;4991970;28;20198;-92
2023/02/13 12:45:04;;;;;;;3.30;3.00;;;;;;;20.29;41.41;99500.47;4961688;28;20228;-94
2023/02/13 12:47:41;;;;;;;2.90;2.70;;;;;;;19.81;41.33;99416.44;4976820;28;20219;-92
2023/02/13 12:50:22;;;;;;;2.83;2.63;;;;;;;20.30;41.16;99489.44;4956655;28;20195;-92
2023/02/13 12:53:01;;;;;;;3.17;2.97;;;;;;;20.31;41.01;99492.09;4982878;28;20254;-92
2023/02/13 12:55:28;;;;;;;3.30;3.10;;;;;;;20.31;41.33;99478.47;5004718;28;20222;-92
2023/02/13 12:58:36;;;;;;;3.03;2.83;;;;;;;19.43;41.19;99316.09;4999593;28;20203;-93
2023/02/13 13:01:07;;;;;;;3.63;3.33;;;;;;;20.31;41.18;99476.78;4999520;28;20277;-91
2023/02/13 13:03:36;;;;;;;3.83;3.47;;;;;;;20.31;41.06;99481.88;4972147;28;20210;-94
2023/02/13 13:06:36;;;;;;;3.67;3.37;;;;;;;20.31;41.31;99475.91;4973371;28;20207;-92
2023/02/13 13:09:32;;;;;;;5.73;3.90;;;;;;;20.29;41.14;99472.38;4966590;28;20207;-95
2023/02/13 13:12:31;;;;;;;4.13;3.73;;;;;;;20.20;41.12;99454.81;4963949;28;20187;-94
2023/02/13 13:15:30;;;;;;;4.07;3.40;;;;;;;19.47;41.30;99343.56;4927937;28;20202;-94
2023/02/13 13:18:11;;;;;;;3.73;3.43;;;;;;;18.93;41.22;99230.28;4974534;28;20218;-94
2023/02/13 13:20:58;;;;;;;4.13;3.73;;;;;;;18.95;41.34;99246.56;4971466;28;20215;-93
2023/02/13 13:23:33;;;;;;;3.90;3.07;;;;;;;19.71;41.44;99373.22;4973346;28;20204;-92
2023/02/13 13:26:08;;;;;;;4.37;3.73;;;;;;;19.69;41.43;99369.72;4985029;28;20213;-92
2023/02/13 13:28:40;;;;;;;3.77;3.37;;;;;;;19.57;41.19;99359.56;4982541;28;20225;-93
2023/02/13 14:11:37;;;;;;;14.23;9.80;;;;;;;20.26;40.12;99452.66;5171109;22;20224;-92
2023/02/13 14:14:45;;;;;;;15.63;10.10;;;;;;;19.46;40.28;99318.84;4969411;28;20195;-91
2023/02/13 14:17:34;;;;;;;16.77;9.87;;;;;;;19.64;40.52;99365.97;4892138;29;20226;-91
2023/02/13 14:20:41;;;;;;;13.57;9.10;;;;;;;18.61;40.47;99166.13;4962422;28;20191;-92
2023/02/13 14:23:26;;;;;;;14.50;9.90;;;;;;;19.52;40.73;99337.09;4963582;28;20182;-91
2023/02/13 14:26:15;;;;;;;15.87;9.73;;;;;;;20.20;40.69;99441.13;4970735;28;20207;-91
2023/02/13 14:28:48;;;;;;;14.13;8.57;;;;;;;19.06;40.75;99255.78;4984575;28;20235;-92
2023/02/13 14:31:34;;;;;;;17.00;9.77;;;;;;;18.11;40.67;99091.44;4962718;28;20193;-92
2023/02/13 14:34:25;;;;;;;11.90;8.37;;;;;;;18.17;41.17;99076.59;4943322;28;20176;-90
2023/02/13 14:37:38;;;;;;;13.47;8.00;;;;;;;17.52;40.92;98980.59;4944462;28;20204;-92
2023/02/13 14:40:25;;;;;;;15.63;8.73;;;;;;;17.93;41.41;99046.94;4967956;28;20200;-92
2023/02/13 14:46:48;;;;;;;12.93;7.70;;;;;;;18.64;41.25;99177.41;4984157;28;20725;-93
2023/02/13 14:49:56;;;;;;;10.77;7.13;;;;;;;17.38;41.17;98972.78;4950550;28;20223;-93
2023/02/13 14:52:32;;;;;;;12.27;7.77;;;;;;;18.58;41.20;99171.91;4949777;28;20192;-93
2023/02/13 14:55:02;;;;;;;10.80;7.50;;;;;;;18.94;41.07;99216.75;4959543;28;20180;-93
2023/02/13 14:57:33;;;;;;;13.33;7.63;;;;;;;18.56;41.21;99154.78;4954844;28;20279;-91
2023/02/13 15:00:30;;;;;;;14.30;7.17;;;;;;;20.22;41.19;99442.13;4972386;28;20672;-91
2023/02/13 15:03:03;;;;;;;10.53;6.53;;;;;;;20.21;41.10;99436.13;4960645;28;20180;-92
2023/02/13 15:05:33;;;;;;;11.60;7.20;;;;;;;18.37;41.26;99141.53;4961489;28;20186;-91
2023/02/13 15:08:14;;;;;;;10.43;6.37;;;;;;;18.79;41.22;99200.44;4958364;28;20212;-92
2023/02/13 15:10:49;;;;;;;10.83;6.57;;;;;;;17.26;41.42;98921.13;4943491;28;20271;-92
2023/02/13 15:13:30;;;;;;;10.53;6.97;;;;;;;18.11;41.35;99088.91;4953370;28;20188;-93
2023/02/13 15:16:08;;;;;;;11.37;6.40;;;;;;;17.32;41.42;98927.50;4975074;28;20207;-93
2023/02/13 15:18:41;;;;;;;9.67;6.40;;;;;;;18.02;41.29;99084.09;4943240;28;20216;-91
2023/02/13 15:21:13;;;;;;;9.13;6.10;;;;;;;17.55;41.14;98964.66;4966450;28;20215;-94
2023/02/13 15:23:56;;;;;;;11.77;6.70;;;;;;;18.08;41.57;99078.50;4962156;28;20207;-91
2023/02/13 15:26:28;;;;;;;12.20;6.67;;;;;;;19.55;41.38;99329.66;4959063;28;20210;-93
2023/02/13 15:29:02;;;;;;;8.17;5.73;;;;;;;20.25;41.53;99427.88;4949073;28;20208;-93
2023/02/13 15:34:29;;;;;;;7.73;5.83;;;;;;;18.59;41.36;99143.09;5237684;23;20273;-92
2023/02/13 15:36:55;;;;;;;10.07;6.23;;;;;;;17.74;41.55;98978.72;4995445;28;21358;-92
2023/02/13 15:39:27;;;;;;;7.80;5.70;;;;;;;19.88;41.45;99358.25;4999309;28;20198;-92
2023/02/13 15:41:57;;;;;;;8.70;5.33;;;;;;;18.64;41.59;99162.13;4996942;28;20203;-92
2023/02/13 15:44:30;;;;;;;7.73;5.37;;;;;;;19.39;41.45;99279.31;4998031;28;20218;-93
2023/02/13 15:47:02;;;;;;;7.43;5.83;;;;;;;19.40;41.65;99296.41;4979855;28;20289;-92
2023/02/13 15:49:54;;;;;;;8.97;5.63;;;;;;;18.02;41.43;99029.75;4981649;28;20215;-94
2023/02/13 15:52:29;;;;;;;7.83;5.43;;;;;;;19.27;41.56;99270.84;4983895;28;20191;-94
2023/02/13 15:55:20;;;;;;;8.27;5.53;;;;;;;18.14;41.35;99082.34;4997535;28;20242;-93
2023/02/13 15:57:47;;;;;;;6.33;5.17;;;;;;;19.08;41.57;99223.63;5003750;28;20337;-94
2023/02/13 16:00:38;;;;;;;7.07;5.20;;;;;;;20.32;41.40;99432.59;4996331;28;20195;-92
2023/02/13 16:03:09;;;;;;;7.33;5.47;;;;;;;17.52;41.41;98956.84;4996874;28;20190;-91
2023/02/13 16:05:41;;;;;;;6.33;5.13;;;;;;;19.20;41.37;99229.53;4986895;28;20337;-92
2023/02/13 16:08:32;;;;;;;7.30;5.10;;;;;;;19.30;41.50;99254.91;5001446;28;20232;-92
2023/02/13 16:11:17;;;;;;;7.63;5.30;;;;;;;20.34;41.48;99423.34;5015096;28;20202;-92
2023/02/13 16:13:55;;;;;;;9.17;5.47;;;;;;;18.71;41.40;99127.78;5005149;28;20209;-92
2023/02/13 16:16:49;;;;;;;7.27;5.10;;;;;;;19.06;41.43;99203.16;5013190;28;20210;-89
2023/02/13 16:19:51;;;;;;;7.63;5.20;;;;;;;20.35;41.41;99421.69;4999097;28;20206;-92
2023/02/13 16:22:37;;;;;;;8.93;5.70;;;;;;;19.51;41.38;99286.91;5004671;28;20209;-92
2023/02/13 16:25:16;;;;;;;7.33;4.87;;;;;;;19.88;41.63;99339.50;4991535;28;20186;-92
2023/02/13 16:27:51;;;;;;;8.40;5.27;;;;;;;20.36;41.61;99426.91;5036661;28;20210;-93
2023/02/13 16:30:50;;;;;;;6.20;4.93;;;;;;;19.86;41.54;99341.03;5015668;28;20221;-91
2023/02/13 16:33:22;;;;;;;7.13;5.13;;;;;;;19.13;41.56;99225.69;5020489;28;20199;-94
2023/02/13 16:35:54;;;;;;;8.20;4.83;;;;;;;19.55;41.69;99328.00;4983081;28;20242;-93
2023/02/13 16:38:29;;;;;;;6.27;4.93;;;;;;;20.37;41.54;99428.66;5013376;28;20191;-92
2023/02/13 16:41:27;;;;;;;7.63;4.73;;;;;;;19.86;41.71;99347.03;5025706;28;20193;-91
2023/02/13 16:43:54;;;;;;;7.57;4.90;;;;;;;19.01;41.67;99198.56;5009832;28;20214;-90
2023/02/13 16:46:23;;;;;;;7.27;4.80;;;;;;;19.91;41.53;99360.09;4994125;28;20207;-93
2023/02/13 16:48:56;;;;;;;8.33;5.40;;;;;;;20.39;41.65;99441.53;4999119;28;20214;-93
2023/02/13 16:51:46;;;;;;;7.07;5.30;;;;;;;20.39;41.82;99436.41;5030460;28;20182;-92
2023/02/13 16:54:17;;;;;;;7.17;4.77;;;;;;;20.39;41.73;99432.19;5018735;28;20189;-93
2023/02/13 16:56:53;;;;;;;6.23;4.80;;;;;;;20.40;42.08;99433.09;5015538;28;20199;-93
2023/02/13 16:59:27;;;;;;;5.30;4.77;;;;;;;19.50;41.71;99283.44;5028493;28;20330;-93
2023/02/13 17:02:16;;;;;;;6.93;4.70;;;;;;;19.53;41.48;99286.19;5011121;28;20214;-93
2023/02/13 17:04:49;;;;;;;7.13;4.87;;;;;;;19.26;41.83;99258.88;5023333;28;21547;-92
2023/02/13 17:07:20;;;;;;;6.40;5.23;;;;;;;19.85;41.72;99349.50;5014850;28;20215;-92
2023/02/13 17:09:51;;;;;;;7.57;5.30;;;;;;;19.61;41.79;99309.66;4992598;28;20290;-91
2023/02/13 17:12:17;;;;;;;7.37;5.33;;;;;;;19.99;41.54;99371.69;4981228;28;20249;-93
2023/02/13 17:14:44;;;;;;;7.07;5.30;;;;;;;18.90;41.69;99191.88;5001373;28;20197;-93
2023/02/13 17:17:16;;;;;;;7.87;4.70;;;;;;;18.29;41.70;99081.63;4986605;28;20210;-93